sensor_id;sensor_type;location;lat;lon;timestamp;pressure;altitude;pressure_sealevel;temperature;humidity
64368;BME280;50692;53.314;-6.300;2023-03-21T00:01:43;100027.34;;;12.65;77.12
64368;BME280;50692;53.314;-6.300;2023-03-21T00:04:27;100019.97;;;12.57;77.00
64368;BME280;50692;53.314;-6.300;2023-03-21T00:07:11;100017.69;;;12.64;76.75
64368;BME280;50692;53.314;-6.300;2023-03-21T00:09:55;100015.03;;;12.64;76.69
64368;BME280;50692;53.314;-6.300;2023-03-21T00:12:39;100002.25;;;12.58;76.83
64368;BME280;50692;53.314;-6.300;2023-03-21T00:15:26;100002.56;;;12.53;77.11
64368;BME280;50692;53.314;-6.300;2023-03-21T00:18:12;99996.41;;;12.53;76.94
64368;BME280;50692;53.314;-6.300;2023-03-21T00:21:00;99989.31;;;12.53;77.04
64368;BME280;50692;53.314;-6.300;2023-03-21T00:23:46;99986.78;;;12.52;76.76
64368;BME280;50692;53.314;-6.300;2023-03-21T00:26:31;99983.28;;;12.51;76.89
64368;BME280;50692;53.314;-6.300;2023-03-21T00:29:16;99976.19;;;12.52;76.53
64368;BME280;50692;53.314;-6.300;2023-03-21T00:32:00;99989.31;;;12.53;76.61
64368;BME280;50692;53.314;-6.300;2023-03-21T00:34:44;99983.06;;;12.54;76.56
64368;BME280;50692;53.314;-6.300;2023-03-21T00:37:28;99977.44;;;12.59;76.31
64368;BME280;50692;53.314;-6.300;2023-03-21T00:40:12;99972.75;;;12.62;76.27
64368;BME280;50692;53.314;-6.300;2023-03-21T00:42:56;99971.69;;;12.65;76.19
64368;BME280;50692;53.314;-6.300;2023-03-21T00:45:41;99973.16;;;12.69;76.32
64368;BME280;50692;53.314;-6.300;2023-03-21T00:48:26;99971.13;;;12.72;76.43
64368;BME280;50692;53.314;-6.300;2023-03-21T00:51:19;99961.22;;;12.75;76.48
64368;BME280;50692;53.314;-6.300;2023-03-21T00:54:11;99967.41;;;12.75;76.60
64368;BME280;50692;53.314;-6.300;2023-03-21T00:56:55;99950.75;;;12.73;76.70
64368;BME280;50692;53.314;-6.300;2023-03-21T00:59:39;99949.56;;;12.77;76.88
64368;BME280;50692;53.314;-6.300;2023-03-21T01:02:26;99945.84;;;12.80;76.74
64368;BME280;50692;53.314;-6.300;2023-03-21T01:05:10;99947.53;;;12.81;76.81
64368;BME280;50692;53.314;-6.300;2023-03-21T01:07:54;99939.47;;;12.82;76.94
64368;BME280;50692;53.314;-6.300;2023-03-21T01:10:40;99941.53;;;12.90;76.67
64368;BME280;50692;53.314;-6.300;2023-03-21T01:13:25;99936.63;;;12.96;76.49
64368;BME280;50692;53.314;-6.300;2023-03-21T01:16:09;99922.16;;;13.01;76.28
64368;BME280;50692;53.314;-6.300;2023-03-21T01:18:54;99921.31;;;13.00;76.55
64368;BME280;50692;53.314;-6.300;2023-03-21T01:21:39;99912.28;;;13.03;76.43
64368;BME280;50692;53.314;-6.300;2023-03-21T01:24:22;99915.50;;;12.95;76.85
64368;BME280;50692;53.314;-6.300;2023-03-21T01:27:06;99902.75;;;13.00;76.99
64368;BME280;50692;53.314;-6.300;2023-03-21T01:29:50;99890.44;;;12.99;77.09
64368;BME280;50692;53.314;-6.300;2023-03-21T01:32:35;99893.94;;;13.00;77.03
64368;BME280;50692;53.314;-6.300;2023-03-21T01:35:19;99889.09;;;12.82;77.16
64368;BME280;50692;53.314;-6.300;2023-03-21T01:38:03;99879.69;;;12.89;76.94
64368;BME280;50692;53.314;-6.300;2023-03-21T01:40:48;99882.69;;;12.85;76.72
64368;BME280;50692;53.314;-6.300;2023-03-21T01:43:34;99872.22;;;12.94;76.42
64368;BME280;50692;53.314;-6.300;2023-03-21T01:49:41;99864.19;;;13.07;75.82
64368;BME280;50692;53.314;-6.300;2023-03-21T01:52:36;99864.03;;;12.98;76.36
64368;BME280;50692;53.314;-6.300;2023-03-21T01:55:21;99852.59;;;12.97;76.24
64368;BME280;50692;53.314;-6.300;2023-03-21T01:58:05;99854.13;;;13.00;76.20
64368;BME280;50692;53.314;-6.300;2023-03-21T02:00:50;99851.25;;;13.03;76.09
64368;BME280;50692;53.314;-6.300;2023-03-21T02:03:35;99843.53;;;13.00;76.52
64368;BME280;50692;53.314;-6.300;2023-03-21T02:06:40;99832.81;;;13.01;76.49
64368;BME280;50692;53.314;-6.300;2023-03-21T02:09:30;99833.19;;;12.96;76.54
64368;BME280;50692;53.314;-6.300;2023-03-21T02:12:16;99804.31;;;12.81;76.67
64368;BME280;50692;53.314;-6.300;2023-03-21T02:15:01;99824.09;;;12.88;76.75
64368;BME280;50692;53.314;-6.300;2023-03-21T02:27:20;99785.13;;;12.66;78.06
64368;BME280;50692;53.314;-6.300;2023-03-21T02:33:15;99786.34;;;12.62;78.45
64368;BME280;50692;53.314;-6.300;2023-03-21T02:39:26;99772.56;;;12.57;78.98
64368;BME280;50692;53.314;-6.300;2023-03-21T02:45:17;99765.22;;;12.60;79.40
64368;BME280;50692;53.314;-6.300;2023-03-21T02:48:11;99770.53;;;12.60;80.06
64368;BME280;50692;53.314;-6.300;2023-03-21T02:50:59;99751.88;;;12.62;79.53
64368;BME280;50692;53.314;-6.300;2023-03-21T02:53:48;99751.13;;;12.60;79.35
64368;BME280;50692;53.314;-6.300;2023-03-21T02:56:34;99750.88;;;12.52;79.79
64368;BME280;50692;53.314;-6.300;2023-03-21T02:59:21;99752.19;;;12.46;79.80
64368;BME280;50692;53.314;-6.300;2023-03-21T03:02:06;99749.44;;;12.47;79.69
64368;BME280;50692;53.314;-6.300;2023-03-21T03:04:51;99739.19;;;12.43;79.82
64368;BME280;50692;53.314;-6.300;2023-03-21T03:20:16;99726.38;;;12.26;80.65
64368;BME280;50692;53.314;-6.300;2023-03-21T03:29:03;99713.72;;;12.29;80.84
64368;BME280;50692;53.314;-6.300;2023-03-21T03:32:13;99700.59;;;12.39;80.78
64368;BME280;50692;53.314;-6.300;2023-03-21T03:35:00;99695.44;;;12.37;80.89
64368;BME280;50692;53.314;-6.300;2023-03-21T03:37:48;99699.66;;;12.40;81.10
64368;BME280;50692;53.314;-6.300;2023-03-21T03:40:39;99697.63;;;12.43;81.08
64368;BME280;50692;53.314;-6.300;2023-03-21T03:43:34;99693.03;;;12.45;81.14
64368;BME280;50692;53.314;-6.300;2023-03-21T03:46:29;99689.44;;;12.46;80.90
64368;BME280;50692;53.314;-6.300;2023-03-21T03:49:20;99690.16;;;12.48;80.98
64368;BME280;50692;53.314;-6.300;2023-03-21T03:55:02;99672.66;;;12.46;81.16
64368;BME280;50692;53.314;-6.300;2023-03-21T03:57:47;99673.78;;;12.43;81.19
64368;BME280;50692;53.314;-6.300;2023-03-21T04:00:32;99666.53;;;12.45;80.98
64368;BME280;50692;53.314;-6.300;2023-03-21T04:03:17;99660.53;;;12.43;81.11
64368;BME280;50692;53.314;-6.300;2023-03-21T04:06:02;99657.38;;;12.49;80.95
64368;BME280;50692;53.314;-6.300;2023-03-21T04:08:47;99660.75;;;12.52;80.97
64368;BME280;50692;53.314;-6.300;2023-03-21T04:11:31;99651.59;;;12.44;81.57
64368;BME280;50692;53.314;-6.300;2023-03-21T04:14:16;99654.38;;;12.43;82.29
64368;BME280;50692;53.314;-6.300;2023-03-21T04:17:00;99641.59;;;12.37;82.99
64368;BME280;50692;53.314;-6.300;2023-03-21T04:19:44;99628.13;;;12.40;83.28
64368;BME280;50692;53.314;-6.300;2023-03-21T04:22:29;99618.34;;;12.40;82.96
64368;BME280;50692;53.314;-6.300;2023-03-21T04:25:14;99623.75;;;12.39;82.85
64368;BME280;50692;53.314;-6.300;2023-03-21T04:27:57;99622.53;;;12.32;83.22
64368;BME280;50692;53.314;-6.300;2023-03-21T04:30:41;99614.59;;;12.20;84.05
64368;BME280;50692;53.314;-6.300;2023-03-21T04:33:25;99620.13;;;12.17;84.13
64368;BME280;50692;53.314;-6.300;2023-03-21T04:36:10;99621.22;;;12.15;84.13
64368;BME280;50692;53.314;-6.300;2023-03-21T04:39:08;99608.81;;;12.15;83.94
64368;BME280;50692;53.314;-6.300;2023-03-21T04:41:55;99629.03;;;12.16;83.81
64368;BME280;50692;53.314;-6.300;2023-03-21T04:44:40;99618.66;;;12.13;83.78
64368;BME280;50692;53.314;-6.300;2023-03-21T04:47:24;99615.91;;;12.15;83.68
64368;BME280;50692;53.314;-6.300;2023-03-21T04:50:10;99611.69;;;12.12;83.64
64368;BME280;50692;53.314;-6.300;2023-03-21T04:52:54;99615.31;;;12.11;83.60
64368;BME280;50692;53.314;-6.300;2023-03-21T04:55:38;99605.03;;;12.07;83.58
64368;BME280;50692;53.314;-6.300;2023-03-21T04:58:22;99610.13;;;12.10;83.55
64368;BME280;50692;53.314;-6.300;2023-03-21T05:01:07;99618.22;;;12.19;83.24
64368;BME280;50692;53.314;-6.300;2023-03-21T05:03:52;99617.22;;;12.20;83.07
64368;BME280;50692;53.314;-6.300;2023-03-21T05:06:36;99619.88;;;12.20;82.95
64368;BME280;50692;53.314;-6.300;2023-03-21T05:09:20;99609.41;;;12.19;82.90
64368;BME280;50692;53.314;-6.300;2023-03-21T05:12:04;99604.97;;;12.19;82.69
64368;BME280;50692;53.314;-6.300;2023-03-21T05:14:49;99609.78;;;12.26;82.52
64368;BME280;50692;53.314;-6.300;2023-03-21T05:17:33;99616.41;;;12.20;83.77
64368;BME280;50692;53.314;-6.300;2023-03-21T05:20:17;99605.44;;;12.13;84.81
64368;BME280;50692;53.314;-6.300;2023-03-21T05:23:01;99600.97;;;12.14;85.46
64368;BME280;50692;53.314;-6.300;2023-03-21T05:25:45;99605.09;;;12.18;85.44
64368;BME280;50692;53.314;-6.300;2023-03-21T05:28:29;99607.13;;;12.14;85.75
64368;BME280;50692;53.314;-6.300;2023-03-21T05:31:15;99604.94;;;12.08;86.33
64368;BME280;50692;53.314;-6.300;2023-03-21T05:34:00;99607.69;;;12.07;86.72
64368;BME280;50692;53.314;-6.300;2023-03-21T05:36:44;99603.13;;;12.09;86.95
64368;BME280;50692;53.314;-6.300;2023-03-21T05:39:28;99615.78;;;12.05;87.55
64368;BME280;50692;53.314;-6.300;2023-03-21T05:42:12;99614.19;;;12.03;88.16
64368;BME280;50692;53.314;-6.300;2023-03-21T05:44:56;99594.06;;;11.89;88.79
64368;BME280;50692;53.314;-6.300;2023-03-21T05:47:41;99604.94;;;11.97;88.69
64368;BME280;50692;53.314;-6.300;2023-03-21T05:50:24;99614.19;;;11.91;89.41
64368;BME280;50692;53.314;-6.300;2023-03-21T05:53:09;99610.31;;;11.84;90.25
64368;BME280;50692;53.314;-6.300;2023-03-21T05:55:53;99621.22;;;11.80;91.08
64368;BME280;50692;53.314;-6.300;2023-03-21T05:58:37;99619.75;;;11.75;91.31
64368;BME280;50692;53.314;-6.300;2023-03-21T06:01:21;99617.81;;;11.77;91.08
64368;BME280;50692;53.314;-6.300;2023-03-21T06:04:05;99619.88;;;11.74;91.28
64368;BME280;50692;53.314;-6.300;2023-03-21T06:06:49;99612.06;;;11.72;92.07
64368;BME280;50692;53.314;-6.300;2023-03-21T06:09:34;99626.00;;;11.74;91.84
64368;BME280;50692;53.314;-6.300;2023-03-21T06:12:18;99644.31;;;11.77;91.65
64368;BME280;50692;53.314;-6.300;2023-03-21T06:15:03;99635.03;;;11.72;91.92
64368;BME280;50692;53.314;-6.300;2023-03-21T06:17:48;99621.75;;;11.61;92.39
64368;BME280;50692;53.314;-6.300;2023-03-21T06:20:32;99633.00;;;11.75;91.59
64368;BME280;50692;53.314;-6.300;2023-03-21T06:23:16;99649.81;;;11.74;91.86
64368;BME280;50692;53.314;-6.300;2023-03-21T06:26:00;99641.56;;;11.79;91.74
64368;BME280;50692;53.314;-6.300;2023-03-21T06:28:45;99655.63;;;11.80;92.02
64368;BME280;50692;53.314;-6.300;2023-03-21T06:31:29;99647.88;;;11.65;93.00
64368;BME280;50692;53.314;-6.300;2023-03-21T06:34:13;99657.09;;;11.60;93.74
64368;BME280;50692;53.314;-6.300;2023-03-21T06:36:58;99660.13;;;11.66;94.28
64368;BME280;50692;53.314;-6.300;2023-03-21T06:39:41;99674.06;;;11.57;94.48
64368;BME280;50692;53.314;-6.300;2023-03-21T06:42:26;99665.25;;;11.57;94.25
64368;BME280;50692;53.314;-6.300;2023-03-21T06:45:10;99673.56;;;11.52;94.13
64368;BME280;50692;53.314;-6.300;2023-03-21T06:47:54;99684.66;;;11.57;93.91
64368;BME280;50692;53.314;-6.300;2023-03-21T06:50:39;99697.16;;;11.55;94.00
64368;BME280;50692;53.314;-6.300;2023-03-21T06:53:24;99676.19;;;11.52;93.76
64368;BME280;50692;53.314;-6.300;2023-03-21T06:56:12;99689.78;;;11.47;93.33
64368;BME280;50692;53.314;-6.300;2023-03-21T06:58:56;99692.41;;;11.47;93.19
64368;BME280;50692;53.314;-6.300;2023-03-21T07:01:40;99699.72;;;11.44;93.27
64368;BME280;50692;53.314;-6.300;2023-03-21T07:04:25;99702.59;;;11.41;93.23
64368;BME280;50692;53.314;-6.300;2023-03-21T07:07:10;99705.75;;;11.46;93.20
64368;BME280;50692;53.314;-6.300;2023-03-21T07:09:54;99708.91;;;11.51;93.21
64368;BME280;50692;53.314;-6.300;2023-03-21T07:12:38;99692.97;;;11.40;92.91
64368;BME280;50692;53.314;-6.300;2023-03-21T07:15:22;99709.41;;;11.56;92.23
64368;BME280;50692;53.314;-6.300;2023-03-21T07:18:08;99709.19;;;11.59;91.74
64368;BME280;50692;53.314;-6.300;2023-03-21T07:20:52;99708.47;;;11.57;91.18
64368;BME280;50692;53.314;-6.300;2023-03-21T07:23:36;99709.19;;;11.59;91.00
64368;BME280;50692;53.314;-6.300;2023-03-21T07:26:21;99714.88;;;11.66;90.53
64368;BME280;50692;53.314;-6.300;2023-03-21T07:29:05;99720.06;;;11.67;90.24
64368;BME280;50692;53.314;-6.300;2023-03-21T07:31:49;99732.13;;;11.71;90.11
64368;BME280;50692;53.314;-6.300;2023-03-21T07:34:33;99730.28;;;11.61;90.03
64368;BME280;50692;53.314;-6.300;2023-03-21T07:37:17;99736.56;;;11.71;90.08
64368;BME280;50692;53.314;-6.300;2023-03-21T07:40:01;99722.59;;;11.69;89.48
64368;BME280;50692;53.314;-6.300;2023-03-21T07:42:50;99731.94;;;11.62;89.48
64368;BME280;50692;53.314;-6.300;2023-03-21T07:45:34;99725.69;;;11.63;89.42
64368;BME280;50692;53.314;-6.300;2023-03-21T07:48:19;99740.91;;;11.72;89.26
64368;BME280;50692;53.314;-6.300;2023-03-21T07:51:03;99739.06;;;11.61;89.61
64368;BME280;50692;53.314;-6.300;2023-03-21T07:53:49;99755.84;;;11.73;89.94
64368;BME280;50692;53.314;-6.300;2023-03-21T07:56:33;99760.78;;;11.77;89.88
64368;BME280;50692;53.314;-6.300;2023-03-21T07:59:17;99772.56;;;11.73;90.41
64368;BME280;50692;53.314;-6.300;2023-03-21T08:02:01;99791.22;;;11.72;90.65
64368;BME280;50692;53.314;-6.300;2023-03-21T08:04:46;99787.41;;;11.63;90.58
64368;BME280;50692;53.314;-6.300;2023-03-21T08:07:30;99786.31;;;11.79;90.40
64368;BME280;50692;53.314;-6.300;2023-03-21T08:10:16;99799.56;;;11.79;90.11
64368;BME280;50692;53.314;-6.300;2023-03-21T08:13:00;99789.28;;;11.87;90.11
64368;BME280;50692;53.314;-6.300;2023-03-21T08:15:44;99785.94;;;11.96;89.53
64368;BME280;50692;53.314;-6.300;2023-03-21T08:18:28;99781.84;;;12.16;88.39
64368;BME280;50692;53.314;-6.300;2023-03-21T08:21:11;99763.16;;;12.17;87.74
64368;BME280;50692;53.314;-6.300;2023-03-21T08:23:55;99763.38;;;12.38;86.37
64368;BME280;50692;53.314;-6.300;2023-03-21T08:26:39;99762.06;;;12.44;84.38
64368;BME280;50692;53.314;-6.300;2023-03-21T08:29:24;99765.06;;;12.39;83.88
64368;BME280;50692;53.314;-6.300;2023-03-21T08:32:08;99756.16;;;12.40;82.88
64368;BME280;50692;53.314;-6.300;2023-03-21T08:34:52;99763.13;;;12.41;82.16
64368;BME280;50692;53.314;-6.300;2023-03-21T08:37:38;99746.84;;;12.35;81.32
64368;BME280;50692;53.314;-6.300;2023-03-21T08:40:07;99770.03;;;12.55;81.12
64368;BME280;50692;53.314;-6.300;2023-03-21T08:42:36;99784.03;;;12.57;80.04
64368;BME280;50692;53.314;-6.300;2023-03-21T08:45:20;99786.91;;;12.54;79.44
64368;BME280;50692;53.314;-6.300;2023-03-21T08:48:05;99778.31;;;12.39;78.61
64368;BME280;50692;53.314;-6.300;2023-03-21T08:50:49;99779.88;;;12.42;79.32
64368;BME280;50692;53.314;-6.300;2023-03-21T08:53:34;99770.03;;;12.44;78.75
64368;BME280;50692;53.314;-6.300;2023-03-21T08:56:18;99766.19;;;12.59;77.78
64368;BME280;50692;53.314;-6.300;2023-03-21T08:59:02;99769.22;;;12.66;76.72
64368;BME280;50692;53.314;-6.300;2023-03-21T09:01:47;99779.84;;;12.88;76.04
64368;BME280;50692;53.314;-6.300;2023-03-21T09:04:31;99780.22;;;13.17;73.01
64368;BME280;50692;53.314;-6.300;2023-03-21T09:07:14;99785.69;;;13.50;71.29
64368;BME280;50692;53.314;-6.300;2023-03-21T09:09:59;99791.41;;;13.88;69.11
64368;BME280;50692;53.314;-6.300;2023-03-21T09:12:43;99775.47;;;14.21;66.59
64368;BME280;50692;53.314;-6.300;2023-03-21T09:15:27;99784.19;;;14.55;66.60
64368;BME280;50692;53.314;-6.300;2023-03-21T09:18:12;99817.84;;;14.86;65.02
64368;BME280;50692;53.314;-6.300;2023-03-21T09:20:58;99790.91;;;14.80;65.44
64368;BME280;50692;53.314;-6.300;2023-03-21T09:23:43;99800.06;;;14.87;65.81
64368;BME280;50692;53.314;-6.300;2023-03-21T09:26:28;99781.28;;;14.88;65.62
64368;BME280;50692;53.314;-6.300;2023-03-21T09:29:12;99786.44;;;15.11;64.92
64368;BME280;50692;53.314;-6.300;2023-03-21T09:31:58;99793.81;;;15.28;63.14
64368;BME280;50692;53.314;-6.300;2023-03-21T09:34:44;99783.47;;;15.35;63.26
64368;BME280;50692;53.314;-6.300;2023-03-21T09:37:28;99790.94;;;15.41;61.67
64368;BME280;50692;53.314;-6.300;2023-03-21T09:40:17;99785.66;;;15.51;61.44
64368;BME280;50692;53.314;-6.300;2023-03-21T09:46:09;99783.69;;;15.53;61.74
64368;BME280;50692;53.314;-6.300;2023-03-21T09:48:59;99780.34;;;15.20;61.03
64368;BME280;50692;53.314;-6.300;2023-03-21T09:51:46;99783.16;;;15.19;61.46
64368;BME280;50692;53.314;-6.300;2023-03-21T09:54:39;99779.81;;;15.36;61.36
64368;BME280;50692;53.314;-6.300;2023-03-21T09:57:37;99768.72;;;15.62;60.89
64368;BME280;50692;53.314;-6.300;2023-03-21T10:00:32;99774.41;;;15.97;59.50
64368;BME280;50692;53.314;-6.300;2023-03-21T10:03:23;99766.56;;;16.44;59.04
64368;BME280;50692;53.314;-6.300;2023-03-21T10:06:12;99773.00;;;16.51;58.30
64368;BME280;50692;53.314;-6.300;2023-03-21T10:12:06;99761.47;;;16.70;57.98
64368;BME280;50692;53.314;-6.300;2023-03-21T10:14:54;99761.34;;;16.52;57.67
64368;BME280;50692;53.314;-6.300;2023-03-21T10:17:46;99768.50;;;16.33;58.51
64368;BME280;50692;53.314;-6.300;2023-03-21T10:20:33;99776.66;;;16.50;58.50
64368;BME280;50692;53.314;-6.300;2023-03-21T10:23:20;99759.06;;;16.87;58.66
64368;BME280;50692;53.314;-6.300;2023-03-21T10:26:05;99767.13;;;17.14;56.93
64368;BME280;50692;53.314;-6.300;2023-03-21T10:28:51;99757.25;;;16.58;58.29
64368;BME280;50692;53.314;-6.300;2023-03-21T10:31:38;99767.69;;;16.13;60.74
64368;BME280;50692;53.314;-6.300;2023-03-21T10:34:30;99763.44;;;15.81;62.85
64368;BME280;50692;53.314;-6.300;2023-03-21T10:37:15;99763.88;;;15.76;63.15
64368;BME280;50692;53.314;-6.300;2023-03-21T10:40:00;99759.81;;;15.92;63.73
64368;BME280;50692;53.314;-6.300;2023-03-21T10:42:46;99767.69;;;16.32;62.08
64368;BME280;50692;53.314;-6.300;2023-03-21T10:45:33;99747.13;;;16.71;60.82
64368;BME280;50692;53.314;-6.300;2023-03-21T10:48:18;99753.59;;;16.78;60.01
64368;BME280;50692;53.314;-6.300;2023-03-21T10:51:05;99762.72;;;16.86;59.52
64368;BME280;50692;53.314;-6.300;2023-03-21T10:53:58;99757.25;;;16.87;59.24
64368;BME280;50692;53.314;-6.300;2023-03-21T10:56:54;99756.84;;;17.19;57.92
64368;BME280;50692;53.314;-6.300;2023-03-21T10:59:51;99763.75;;;17.40;56.75
64368;BME280;50692;53.314;-6.300;2023-03-21T11:02:39;99762.63;;;17.70;55.88
64368;BME280;50692;53.314;-6.300;2023-03-21T11:05:34;99758.47;;;17.85;54.60
64368;BME280;50692;53.314;-6.300;2023-03-21T11:08:19;99759.50;;;18.02;54.54
64368;BME280;50692;53.314;-6.300;2023-03-21T11:11:06;99767.66;;;18.01;54.46
64368;BME280;50692;53.314;-6.300;2023-03-21T11:13:59;99770.81;;;17.41;56.03
64368;BME280;50692;53.314;-6.300;2023-03-21T11:16:44;99767.53;;;16.63;57.53
64368;BME280;50692;53.314;-6.300;2023-03-21T11:19:31;99792.38;;;16.53;59.07
64368;BME280;50692;53.314;-6.300;2023-03-21T11:22:18;99777.50;;;16.31;60.52
64368;BME280;50692;53.314;-6.300;2023-03-21T11:25:06;99783.69;;;16.13;60.80
64368;BME280;50692;53.314;-6.300;2023-03-21T11:27:53;99776.94;;;16.18;60.96
64368;BME280;50692;53.314;-6.300;2023-03-21T11:30:54;99767.22;;;16.85;58.30
64368;BME280;50692;53.314;-6.300;2023-03-21T11:33:42;99783.84;;;17.16;56.67
64368;BME280;50692;53.314;-6.300;2023-03-21T11:36:32;99772.16;;;17.17;55.61
64368;BME280;50692;53.314;-6.300;2023-03-21T11:39:36;99775.78;;;16.79;56.40
64368;BME280;50692;53.314;-6.300;2023-03-21T11:42:32;99770.50;;;17.16;56.90
64368;BME280;50692;53.314;-6.300;2023-03-21T11:45:26;99769.50;;;17.72;54.16
64368;BME280;50692;53.314;-6.300;2023-03-21T11:48:12;99764.44;;;18.15;52.94
64368;BME280;50692;53.314;-6.300;2023-03-21T11:51:04;99758.97;;;18.16;53.00
64368;BME280;50692;53.314;-6.300;2023-03-21T12:00:28;99763.44;;;18.34;50.31
64368;BME280;50692;53.314;-6.300;2023-03-21T12:06:18;99756.97;;;17.55;49.34
64368;BME280;50692;53.314;-6.300;2023-03-21T12:12:25;99781.13;;;16.69;51.42
64368;BME280;50692;53.314;-6.300;2023-03-21T12:21:19;99762.81;;;15.58;54.68
64368;BME280;50692;53.314;-6.300;2023-03-21T12:30:42;99769.00;;;15.58;55.66
64368;BME280;50692;53.314;-6.300;2023-03-21T12:39:29;99758.53;;;15.36;58.38
64368;BME280;50692;53.314;-6.300;2023-03-21T12:42:40;99761.44;;;15.23;60.19
64368;BME280;50692;53.314;-6.300;2023-03-21T12:45:33;99758.25;;;15.29;62.14
64368;BME280;50692;53.314;-6.300;2023-03-21T12:51:33;99752.41;;;15.05;61.51
64368;BME280;50692;53.314;-6.300;2023-03-21T12:54:30;99739.00;;;15.16;60.54
64368;BME280;50692;53.314;-6.300;2023-03-21T12:57:24;99745.09;;;15.38;60.38
64368;BME280;50692;53.314;-6.300;2023-03-21T13:05:54;99753.47;;;15.23;59.23
64368;BME280;50692;53.314;-6.300;2023-03-21T13:08:43;99748.13;;;15.23;58.99
64368;BME280;50692;53.314;-6.300;2023-03-21T13:11:30;99733.78;;;15.15;58.12
64368;BME280;50692;53.314;-6.300;2023-03-21T13:14:20;99742.22;;;15.20;58.45
64368;BME280;50692;53.314;-6.300;2023-03-21T13:17:21;99714.22;;;15.25;57.82
64368;BME280;50692;53.314;-6.300;2023-03-21T13:20:39;99704.31;;;15.47;57.62
64368;BME280;50692;53.314;-6.300;2023-03-21T13:23:34;99700.53;;;15.40;56.50
64368;BME280;50692;53.314;-6.300;2023-03-21T13:26:19;99695.75;;;15.43;57.07
64368;BME280;50692;53.314;-6.300;2023-03-21T13:29:59;99677.03;;;15.54;55.51
64368;BME280;50692;53.314;-6.300;2023-03-21T13:32:31;99683.94;;;15.67;55.35
64368;BME280;50692;53.314;-6.300;2023-03-21T13:35:41;99670.19;;;15.71;55.38
64368;BME280;50692;53.314;-6.300;2023-03-21T13:38:28;99651.53;;;15.81;54.86
64368;BME280;50692;53.314;-6.300;2023-03-21T13:41:33;99676.78;;;15.77;55.38
64368;BME280;50692;53.314;-6.300;2023-03-21T13:44:21;99673.84;;;15.80;54.67
64368;BME280;50692;53.314;-6.300;2023-03-21T13:47:22;99646.91;;;15.83;54.72
64368;BME280;50692;53.314;-6.300;2023-03-21T13:58:59;99630.91;;;16.12;54.58
64368;BME280;50692;53.314;-6.300;2023-03-21T14:01:57;99617.97;;;16.17;54.60
64368;BME280;50692;53.314;-6.300;2023-03-21T14:04:42;99615.91;;;15.92;55.30
64368;BME280;50692;53.314;-6.300;2023-03-21T14:07:42;99604.41;;;15.81;55.73
64368;BME280;50692;53.314;-6.300;2023-03-21T14:13:20;99611.91;;;16.25;55.62
64368;BME280;50692;53.314;-6.300;2023-03-21T14:16:09;99604.06;;;16.23;55.08
64368;BME280;50692;53.314;-6.300;2023-03-21T14:18:59;99599.56;;;16.34;54.97
64368;BME280;50692;53.314;-6.300;2023-03-21T14:21:49;99583.06;;;16.01;54.81
64368;BME280;50692;53.314;-6.300;2023-03-21T14:24:36;99573.56;;;15.79;55.52
64368;BME280;50692;53.314;-6.300;2023-03-21T14:27:21;99576.66;;;15.55;56.24
64368;BME280;50692;53.314;-6.300;2023-03-21T14:30:09;99569.38;;;15.47;56.99
64368;BME280;50692;53.314;-6.300;2023-03-21T14:32:55;99549.63;;;15.30;57.94
64368;BME280;50692;53.314;-6.300;2023-03-21T14:35:32;99555.31;;;15.06;58.79
64368;BME280;50692;53.314;-6.300;2023-03-21T14:38:19;99548.84;;;14.80;59.37
64368;BME280;50692;53.314;-6.300;2023-03-21T14:41:04;99531.88;;;14.71;60.45
64368;BME280;50692;53.314;-6.300;2023-03-21T14:44:10;99529.47;;;14.68;61.46
64368;BME280;50692;53.314;-6.300;2023-03-21T14:47:05;99506.16;;;14.41;62.49
64368;BME280;50692;53.314;-6.300;2023-03-21T14:49:50;99516.53;;;14.44;63.44
64368;BME280;50692;53.314;-6.300;2023-03-21T14:52:35;99504.97;;;14.24;64.63
64368;BME280;50692;53.314;-6.300;2023-03-21T14:55:20;99512.78;;;14.16;65.72
64368;BME280;50692;53.314;-6.300;2023-03-21T14:58:05;99486.63;;;14.11;65.91
64368;BME280;50692;53.314;-6.300;2023-03-21T15:00:53;99486.22;;;14.16;65.82
64368;BME280;50692;53.314;-6.300;2023-03-21T15:03:44;99485.59;;;14.03;65.58
64368;BME280;50692;53.314;-6.300;2023-03-21T15:06:30;99487.81;;;13.98;66.04
64368;BME280;50692;53.314;-6.300;2023-03-21T15:09:17;99460.88;;;13.81;66.01
64368;BME280;50692;53.314;-6.300;2023-03-21T15:12:07;99467.59;;;13.85;66.51
64368;BME280;50692;53.314;-6.300;2023-03-21T15:14:54;99466.03;;;13.73;67.36
64368;BME280;50692;53.314;-6.300;2023-03-21T15:17:40;99470.03;;;13.67;68.06
64368;BME280;50692;53.314;-6.300;2023-03-21T15:20:27;99464.69;;;13.58;68.85
64368;BME280;50692;53.314;-6.300;2023-03-21T15:23:29;99441.13;;;13.43;70.58
64368;BME280;50692;53.314;-6.300;2023-03-21T15:26:18;99436.78;;;13.42;71.53
64368;BME280;50692;53.314;-6.300;2023-03-21T15:29:05;99445.56;;;13.43;71.89
64368;BME280;50692;53.314;-6.300;2023-03-21T15:31:52;99450.31;;;13.39;72.15
64368;BME280;50692;53.314;-6.300;2023-03-21T15:34:38;99446.56;;;13.42;72.89
64368;BME280;50692;53.314;-6.300;2023-03-21T15:37:27;99425.13;;;13.34;73.75
64368;BME280;50692;53.314;-6.300;2023-03-21T15:40:15;99412.38;;;13.28;74.20
64368;BME280;50692;53.314;-6.300;2023-03-21T15:43:12;99405.97;;;13.30;74.43
64368;BME280;50692;53.314;-6.300;2023-03-21T15:45:59;99398.03;;;13.30;74.67
64368;BME280;50692;53.314;-6.300;2023-03-21T15:48:45;99394.66;;;13.28;74.87
64368;BME280;50692;53.314;-6.300;2023-03-21T15:51:31;99375.03;;;13.40;74.81
64368;BME280;50692;53.314;-6.300;2023-03-21T15:54:23;99373.03;;;13.33;75.37
64368;BME280;50692;53.314;-6.300;2023-03-21T15:57:22;99387.31;;;13.41;75.26
64368;BME280;50692;53.314;-6.300;2023-03-21T16:03:08;99377.22;;;13.35;75.69
64368;BME280;50692;53.314;-6.300;2023-03-21T16:06:17;99361.63;;;13.21;75.73
64368;BME280;50692;53.314;-6.300;2023-03-21T16:11:55;99341.38;;;13.20;75.97
64368;BME280;50692;53.314;-6.300;2023-03-21T16:14:41;99328.63;;;13.14;75.98
64368;BME280;50692;53.314;-6.300;2023-03-21T16:17:34;99319.13;;;13.11;76.80
64368;BME280;50692;53.314;-6.300;2023-03-21T16:20:27;99302.28;;;13.22;76.85
64368;BME280;50692;53.314;-6.300;2023-03-21T16:23:14;99303.50;;;13.18;76.54